createdAt,value
2019-02-25T00:01:47.076Z,33.47
2019-02-25T00:04:17.908Z,34.73
2019-02-25T00:06:47.519Z,46.07
2019-02-25T00:09:22.108Z,31.97
2019-02-25T00:11:55.668Z,39.27
2019-02-25T00:14:25.264Z,38.23
2019-02-25T00:16:55.077Z,31.27
2019-02-25T00:19:26.630Z,30.20
2019-02-25T00:21:56.582Z,27.73
2019-02-25T00:24:28.285Z,40.90
2019-02-25T00:26:58.134Z,40.30
2019-02-25T00:29:30.126Z,45.40
2019-02-25T00:32:01.447Z,34.70
2019-02-25T00:34:31.100Z,36.37
2019-02-25T00:37:00.926Z,37.93
2019-02-25T00:39:34.613Z,28.63
2019-02-25T00:42:04.374Z,26.03
2019-02-25T00:44:35.516Z,24.53
2019-02-25T00:47:07.523Z,26.17
2019-02-25T00:49:37.111Z,25.90
2019-02-25T00:52:09.932Z,21.83
2019-02-25T00:54:39.489Z,19.50
2019-02-25T00:57:09.163Z,26.47
2019-02-25T00:59:38.820Z,29.57
2019-02-25T01:02:08.295Z,29.90
2019-02-25T01:04:38.091Z,25.80
2019-02-25T01:07:07.913Z,26.07
2019-02-25T01:09:38.942Z,26.70
2019-02-25T01:12:09.571Z,26.43
2019-02-25T01:14:39.286Z,23.20
2019-02-25T01:17:09.002Z,15.20
2019-02-25T01:19:44.378Z,20.47
2019-02-25T01:22:14.107Z,23.47
2019-02-25T01:24:45.153Z,25.27
2019-02-25T01:27:15.823Z,27.87
2019-02-25T01:29:46.900Z,28.30
2019-02-25T01:32:16.607Z,20.30
2019-02-25T01:34:48.069Z,21.83
2019-02-25T01:37:19.795Z,23.30
2019-02-25T01:39:49.494Z,24.53
2019-02-25T01:42:21.238Z,21.40
2019-02-25T01:44:52.122Z,23.93
2019-02-25T01:47:21.728Z,33.03
2019-02-25T01:49:55.210Z,28.87
2019-02-25T01:52:26.126Z,27.03
2019-02-25T01:54:58.510Z,29.97
2019-02-25T01:57:28.142Z,25.50
2019-02-25T02:00:01.066Z,31.20
2019-02-25T02:02:30.846Z,35.67
2019-02-25T02:05:00.436Z,30.73
2019-02-25T02:07:31.165Z,30.93
2019-02-25T02:10:05.258Z,26.97
2019-02-25T02:12:32.605Z,38.10
2019-02-25T02:15:03.954Z,43.73
2019-02-25T02:17:35.638Z,34.03
2019-02-25T02:20:05.858Z,27.40
2019-02-25T02:22:39.829Z,47.07
2019-02-25T02:25:14.782Z,37.27
2019-02-25T02:27:46.352Z,37.37
2019-02-25T02:30:17.861Z,28.77
2019-02-25T02:32:47.591Z,39.43
2019-02-25T02:35:21.837Z,35.27
2019-02-25T02:37:54.563Z,39.57
2019-02-25T02:40:27.020Z,36.20
2019-02-25T02:42:57.792Z,26.67
2019-02-25T02:45:42.203Z,31.83
2019-02-25T02:48:17.662Z,19.67
2019-02-25T02:50:49.384Z,34.33
2019-02-25T02:53:26.006Z,30.93
2019-02-25T02:55:55.707Z,42.03
2019-02-25T02:58:25.388Z,36.73
2019-02-25T03:00:59.438Z,34.40
2019-02-25T03:03:29.176Z,32.57
2019-02-25T03:06:08.589Z,33.10
2019-02-25T03:08:38.203Z,35.37
2019-02-25T03:11:07.969Z,34.57
2019-02-25T03:13:37.702Z,29.37
2019-02-25T03:16:11.191Z,22.10
2019-02-25T03:18:44.112Z,34.40
2019-02-25T03:21:14.871Z,29.40
2019-02-25T03:23:44.659Z,36.27
2019-02-25T03:26:14.423Z,33.00
2019-02-25T03:28:48.789Z,29.33
2019-02-25T03:31:18.536Z,41.77
2019-02-25T03:33:48.211Z,32.70
2019-02-25T03:36:20.653Z,36.63
2019-02-25T03:38:50.281Z,22.30
2019-02-25T03:41:21.221Z,27.07
2019-02-25T03:43:55.957Z,28.20
2019-02-25T03:46:27.048Z,24.90
2019-02-25T03:48:56.663Z,29.57
2019-02-25T03:51:28.455Z,19.00
2019-02-25T03:54:00.043Z,16.13
2019-02-25T03:56:29.683Z,16.90
2019-02-25T03:59:03.674Z,18.80
2019-02-25T04:01:35.929Z,11.93
2019-02-25T04:04:05.712Z,12.80
2019-02-25T04:06:36.872Z,13.87
2019-02-25T04:09:11.086Z,14.27
2019-02-25T04:11:43.732Z,16.53
2019-02-25T04:14:13.472Z,28.13
2019-02-25T04:16:43.148Z,15.87
2019-02-25T04:19:12.833Z,12.40
2019-02-25T04:21:47.395Z,13.03
2019-02-25T04:24:18.479Z,15.43
2019-02-25T04:26:48.054Z,19.77
2019-02-25T04:29:19.502Z,16.87
2019-02-25T04:33:42.498Z,13.80
2019-02-25T04:36:11.999Z,15.60
2019-02-25T04:38:42.843Z,20.13
2019-02-25T04:41:17.913Z,18.13
2019-02-25T04:43:47.152Z,25.50
2019-02-25T04:46:20.123Z,20.30
2019-02-25T04:48:53.718Z,22.50
2019-02-25T04:51:28.754Z,20.07
2019-02-25T04:54:04.212Z,20.67
2019-02-25T04:56:34.002Z,25.50
2019-02-25T04:59:06.519Z,20.40
2019-02-25T05:01:36.145Z,18.23
2019-02-25T05:04:07.123Z,23.10
2019-02-25T05:06:36.766Z,24.90
2019-02-25T05:09:09.563Z,24.80
2019-02-25T05:11:39.221Z,26.60
2019-02-25T05:14:11.694Z,23.63
2019-02-25T05:16:43.854Z,15.87
2019-02-25T05:19:16.454Z,24.60
2019-02-25T05:21:46.141Z,19.60
2019-02-25T05:24:15.907Z,14.43
2019-02-25T05:26:45.465Z,19.10
2019-02-25T05:29:16.336Z,20.10
2019-02-25T05:31:47.919Z,22.57
2019-02-25T05:34:17.282Z,26.30
2019-02-25T05:36:51.541Z,35.30
2019-02-25T05:39:28.509Z,41.47
2019-02-25T05:41:58.108Z,28.23
2019-02-25T05:44:27.622Z,33.77
2019-02-25T05:47:18.681Z,23.53
2019-02-25T05:49:51.812Z,20.00
2019-02-25T05:52:23.273Z,22.63
2019-02-25T05:54:53.164Z,22.47
2019-02-25T05:57:24.413Z,42.60
2019-02-25T06:00:03.656Z,59.30
2019-02-25T06:02:34.397Z,45.50
2019-02-25T06:05:07.651Z,39.33
2019-02-25T06:07:38.580Z,25.83
2019-02-25T06:10:12.658Z,31.57
2019-02-25T06:12:47.816Z,33.73
2019-02-25T06:15:17.850Z,28.90
2019-02-25T06:17:48.485Z,34.47
2019-02-25T06:20:19.476Z,32.17
2019-02-25T06:22:49.067Z,37.80
2019-02-25T06:25:18.737Z,37.00
2019-02-25T06:27:48.306Z,35.33
2019-02-25T06:30:19.548Z,40.40
2019-02-25T06:32:53.653Z,32.23
2019-02-25T06:35:25.396Z,38.23
2019-02-25T06:37:58.062Z,46.17
2019-02-25T06:40:27.901Z,44.33
2019-02-25T06:42:57.702Z,50.87
2019-02-25T06:45:27.546Z,46.50
2019-02-25T06:47:59.544Z,52.00
2019-02-25T06:50:29.272Z,45.57
2019-02-25T06:52:58.939Z,46.93
2019-02-25T06:55:28.679Z,36.87
2019-02-25T06:57:58.251Z,39.37
2019-02-25T07:00:28.020Z,38.17
2019-02-25T07:02:58.820Z,38.87
2019-02-25T07:05:54.685Z,41.57
2019-02-25T07:08:43.295Z,42.57
2019-02-25T07:11:37.931Z,46.13
2019-02-25T07:14:31.055Z,39.13
2019-02-25T07:17:22.752Z,33.57
2019-02-25T07:20:03.180Z,44.70
2019-02-25T07:23:01.014Z,52.47
2019-02-25T07:25:40.325Z,35.40
2019-02-25T07:28:20.642Z,32.13
2019-02-25T07:31:11.303Z,27.77
2019-02-25T07:34:01.802Z,28.23
2019-02-25T07:37:09.909Z,31.87
2019-02-25T07:40:17.426Z,27.07
2019-02-25T07:43:12.237Z,35.50
2019-02-25T07:46:05.150Z,37.33
2019-02-25T07:48:57.836Z,34.13
2019-02-25T07:51:51.308Z,31.13
2019-02-25T07:54:43.735Z,34.97
2019-02-25T07:57:23.802Z,27.67
2019-02-25T08:00:07.951Z,32.53
2019-02-25T08:03:00.194Z,28.43
2019-02-25T08:05:59.934Z,30.83
2019-02-25T08:08:48.094Z,30.17
2019-02-25T08:11:27.689Z,43.13
2019-02-25T08:14:05.990Z,49.37
2019-02-25T08:16:50.557Z,31.27
2019-02-25T08:19:39.862Z,27.27
2019-02-25T08:22:26.745Z,25.57
2019-02-25T08:25:17.828Z,22.03
2019-02-25T08:28:05.703Z,23.30
2019-02-25T08:31:01.283Z,21.03
2019-02-25T08:34:18.155Z,20.23
2019-02-25T08:37:47.570Z,17.77
2019-02-25T08:41:08.381Z,16.20
2019-02-25T08:44:15.004Z,18.23
2019-02-25T08:47:06.754Z,15.73
2019-02-25T08:49:49.280Z,21.93
2019-02-25T08:52:20.112Z,26.77
2019-02-25T08:54:54.456Z,17.03
2019-02-25T08:57:24.486Z,20.40
2019-02-25T08:59:57.242Z,14.63
2019-02-25T09:02:30.302Z,15.33
2019-02-25T09:05:00.925Z,11.67
2019-02-25T09:07:33.548Z,17.50
2019-02-25T09:10:07.079Z,11.60
2019-02-25T09:12:36.627Z,12.50
2019-02-25T09:15:07.892Z,13.53
2019-02-25T09:17:45.673Z,16.20
2019-02-25T09:20:18.988Z,14.37
2019-02-25T09:22:51.299Z,14.80
2019-02-25T09:25:21.712Z,12.40
2019-02-25T09:27:51.680Z,11.87
2019-02-25T09:30:21.843Z,14.20
2019-02-25T09:32:52.174Z,20.63
2019-02-25T09:35:22.011Z,15.80
2019-02-25T09:37:54.433Z,13.03
2019-02-25T09:40:24.974Z,11.63
2019-02-25T09:42:55.893Z,11.63
2019-02-25T09:45:28.219Z,13.43
2019-02-25T09:47:59.777Z,11.93
2019-02-25T09:50:31.859Z,8.53
2019-02-25T09:53:03.852Z,7.20
2019-02-25T09:55:38.671Z,9.10
2019-02-25T09:58:11.083Z,5.17
2019-02-25T10:00:40.792Z,13.30
2019-02-25T10:03:10.523Z,8.97
2019-02-25T10:05:42.835Z,9.07
2019-02-25T10:08:15.526Z,9.30
2019-02-25T10:10:48.387Z,12.73
2019-02-25T10:13:19.764Z,8.77
2019-02-25T10:15:49.982Z,12.43
2019-02-25T10:18:20.586Z,8.83
2019-02-25T10:20:50.082Z,9.70
2019-02-25T10:23:24.088Z,8.97
2019-02-25T10:25:53.733Z,9.07
2019-02-25T10:28:23.346Z,9.23
2019-02-25T10:30:53.357Z,7.40
2019-02-25T10:33:25.828Z,9.90
2019-02-25T10:35:55.507Z,6.47
2019-02-25T10:38:25.173Z,8.43
2019-02-25T10:40:54.869Z,8.57
2019-02-25T10:43:28.075Z,8.63
2019-02-25T10:45:58.787Z,8.10
2019-02-25T10:48:29.891Z,7.80
2019-02-25T10:50:59.652Z,11.03
2019-02-25T10:53:29.431Z,11.93
2019-02-25T10:56:04.882Z,18.03
2019-02-25T10:58:35.978Z,8.57
2019-02-25T11:01:08.460Z,11.30
2019-02-25T11:03:37.449Z,10.07
2019-02-25T11:06:09.142Z,12.40
2019-02-25T11:08:41.486Z,9.43
2019-02-25T11:11:18.809Z,9.93
2019-02-25T11:13:49.199Z,13.03
2019-02-25T11:16:24.437Z,9.13
2019-02-25T11:18:57.013Z,10.17
2019-02-25T11:21:26.674Z,12.27
2019-02-25T11:23:59.223Z,17.20
2019-02-25T11:26:30.699Z,8.97
2019-02-25T11:29:00.261Z,9.30
2019-02-25T11:31:30.031Z,9.47
2019-02-25T11:34:00.649Z,8.13
2019-02-25T11:36:33.050Z,8.03
2019-02-25T11:39:06.916Z,9.10
2019-02-25T11:41:40.987Z,7.20
2019-02-25T11:44:10.536Z,11.63
2019-02-25T11:46:40.287Z,11.83
2019-02-25T11:49:11.517Z,7.30
2019-02-25T11:51:44.499Z,8.03
2019-02-25T11:54:15.337Z,11.13
2019-02-25T11:56:46.209Z,8.40
2019-02-25T11:59:15.707Z,12.50
2019-02-25T12:01:46.667Z,9.37
2019-02-25T12:04:19.442Z,8.30
2019-02-25T12:06:49.077Z,12.60
2019-02-25T12:09:18.760Z,12.47
2019-02-25T12:11:50.051Z,11.63
2019-02-25T12:14:19.744Z,12.90
2019-02-25T12:16:49.366Z,16.87
2019-02-25T12:19:19.090Z,15.07
2019-02-25T12:21:48.740Z,11.40
2019-02-25T12:24:20.140Z,14.30
2019-02-25T12:26:49.801Z,12.13
2019-02-25T12:29:19.351Z,12.13
2019-02-25T12:31:55.203Z,16.83
2019-02-25T12:34:24.759Z,13.43
2019-02-25T12:36:56.359Z,12.03
2019-02-25T12:39:27.132Z,12.97
2019-02-25T12:41:59.405Z,17.63
2019-02-25T12:44:29.070Z,9.97
2019-02-25T12:46:58.681Z,11.60
2019-02-25T12:49:29.770Z,11.57
2019-02-25T12:51:59.468Z,14.73
2019-02-25T12:54:29.119Z,18.27
2019-02-25T12:57:01.749Z,8.53
2019-02-25T12:59:33.904Z,11.57
2019-02-25T13:02:03.346Z,14.33
2019-02-25T13:04:34.915Z,10.20
2019-02-25T13:07:04.654Z,10.80
2019-02-25T13:09:36.261Z,9.93
2019-02-25T13:12:05.924Z,11.70
2019-02-25T13:14:37.658Z,10.53
2019-02-25T13:17:08.687Z,10.23
2019-02-25T13:19:38.438Z,9.70
2019-02-25T13:22:11.441Z,12.10
2019-02-25T13:24:42.571Z,12.10
2019-02-25T13:27:14.255Z,12.13
2019-02-25T13:29:43.987Z,11.03
2019-02-25T13:32:13.526Z,11.47
2019-02-25T13:34:43.248Z,12.40
2019-02-25T13:37:12.772Z,13.37
2019-02-25T13:39:43.462Z,12.73
2019-02-25T13:42:14.390Z,21.70
2019-02-25T13:44:43.939Z,17.60
2019-02-25T13:47:15.271Z,16.03
2019-02-25T13:49:46.043Z,13.30
2019-02-25T13:52:17.043Z,14.07
2019-02-25T13:54:47.916Z,15.73
2019-02-25T13:57:17.547Z,13.67
2019-02-25T13:59:47.112Z,15.67
2019-02-25T14:02:16.817Z,14.93
2019-02-25T14:04:48.185Z,18.80
2019-02-25T14:07:18.193Z,13.83
2019-02-25T14:09:47.779Z,12.97
2019-02-25T14:12:17.455Z,20.30
2019-02-25T14:14:47.171Z,17.23
2019-02-25T14:17:17.095Z,9.30
2019-02-25T14:19:46.685Z,9.30
2019-02-25T14:22:19.569Z,8.77
2019-02-25T14:24:49.366Z,12.73
2019-02-25T14:27:18.925Z,12.43
2019-02-25T14:29:48.947Z,11.17
2019-02-25T14:32:20.409Z,14.43
2019-02-25T14:34:50.403Z,12.53
2019-02-25T14:37:26.044Z,25.23
2019-02-25T14:39:56.685Z,10.23
2019-02-25T14:42:28.905Z,19.23
2019-02-25T14:45:01.075Z,14.90
2019-02-25T14:47:35.102Z,12.77
2019-02-25T14:50:03.930Z,14.87
2019-02-25T14:52:35.702Z,14.33
2019-02-25T14:55:07.102Z,9.30
2019-02-25T14:57:38.078Z,12.03
2019-02-25T15:00:13.351Z,11.47
2019-02-25T15:02:50.246Z,8.30
2019-02-25T15:05:19.858Z,10.37
2019-02-25T15:07:51.157Z,9.67
2019-02-25T15:10:26.555Z,10.00
2019-02-25T15:12:56.472Z,10.40
2019-02-25T15:15:26.383Z,13.83
2019-02-25T15:17:55.955Z,12.13
2019-02-25T15:20:26.783Z,16.43
2019-02-25T15:23:03.464Z,13.83
2019-02-25T15:25:40.265Z,11.37
2019-02-25T15:28:11.921Z,12.60
2019-02-25T15:30:43.207Z,19.60
2019-02-25T15:33:15.987Z,29.17
2019-02-25T15:35:45.774Z,14.63
2019-02-25T15:38:22.697Z,13.97
2019-02-25T15:40:49.980Z,12.37
2019-02-25T15:43:22.900Z,11.97
2019-02-25T15:45:52.297Z,12.57
2019-02-25T15:48:22.401Z,12.83
2019-02-25T15:50:55.487Z,13.07
2019-02-25T15:53:28.461Z,13.63
2019-02-25T15:56:03.691Z,19.80
2019-02-25T15:58:33.380Z,16.10
2019-02-25T16:01:02.993Z,12.90
2019-02-25T16:03:35.143Z,16.77
2019-02-25T16:06:08.367Z,14.40
2019-02-25T16:08:49.832Z,26.30
2019-02-25T16:11:18.808Z,44.33
2019-02-25T16:13:49.140Z,23.47
2019-02-25T16:16:20.475Z,21.07
2019-02-25T16:18:53.519Z,14.67
2019-02-25T16:21:26.663Z,15.33
2019-02-25T16:23:59.295Z,10.20
2019-02-25T16:26:36.049Z,13.83
2019-02-25T16:29:04.635Z,33.03
2019-02-25T16:31:35.240Z,29.87
2019-02-25T16:34:04.729Z,23.97
2019-02-25T16:36:34.297Z,31.57
2019-02-25T16:39:07.241Z,25.27
2019-02-25T16:41:38.410Z,28.77
2019-02-25T16:44:09.119Z,33.93
2019-02-25T16:46:43.537Z,30.33
2019-02-25T16:49:12.942Z,30.10
2019-02-25T16:51:42.770Z,33.33
2019-02-25T16:54:13.581Z,38.07
2019-02-25T16:56:44.236Z,36.67
2019-02-25T16:59:15.713Z,36.60
2019-02-25T17:01:45.640Z,36.43
2019-02-25T17:04:16.843Z,34.53
2019-02-25T17:06:49.030Z,50.53
2019-02-25T17:09:23.667Z,52.30
2019-02-25T17:11:53.378Z,58.27
2019-02-25T17:14:25.616Z,74.10
2019-02-25T17:16:57.365Z,66.97
2019-02-25T17:19:26.821Z,94.50
2019-02-25T17:21:56.513Z,175.33
2019-02-25T17:24:30.344Z,182.20
2019-02-25T17:27:01.933Z,176.60
2019-02-25T17:29:33.570Z,159.80
2019-02-25T17:32:03.618Z,134.67
2019-02-25T17:34:34.486Z,156.83
2019-02-25T17:37:05.947Z,159.00
2019-02-25T17:39:37.637Z,151.70
2019-02-25T17:42:16.021Z,180.47
2019-02-25T17:44:46.263Z,154.47
2019-02-25T17:47:24.060Z,179.40
2019-02-25T17:49:47.206Z,206.60
2019-02-25T17:52:18.514Z,214.20
2019-02-25T17:54:51.696Z,195.67
2019-02-25T17:57:21.605Z,172.40
2019-02-25T17:59:54.885Z,169.50
2019-02-25T18:02:22.764Z,166.17
2019-02-25T18:04:53.293Z,146.40
2019-02-25T18:07:23.484Z,123.03
2019-02-25T18:09:54.582Z,117.43
2019-02-25T18:12:25.718Z,108.80
2019-02-25T18:14:56.613Z,96.80
2019-02-25T18:17:26.668Z,105.50
2019-02-25T18:19:56.858Z,72.03
2019-02-25T18:22:26.571Z,78.57
2019-02-25T18:24:56.161Z,88.80
2019-02-25T18:27:28.792Z,71.30
2019-02-25T18:29:59.315Z,75.37
2019-02-25T18:32:30.569Z,76.40
2019-02-25T18:35:02.049Z,71.30
2019-02-25T18:37:35.281Z,94.70
2019-02-25T18:40:05.274Z,91.77
2019-02-25T18:42:36.562Z,76.90
2019-02-25T18:45:08.695Z,71.83
2019-02-25T18:47:39.303Z,69.50
2019-02-25T18:50:17.418Z,59.83
2019-02-25T18:52:44.088Z,43.37
2019-02-25T18:55:15.393Z,48.13
2019-02-25T18:57:46.122Z,46.47
2019-02-25T19:00:24.299Z,45.23
2019-02-25T19:02:56.183Z,43.87
2019-02-25T19:05:29.766Z,77.53
2019-02-25T19:08:00.836Z,82.80
2019-02-25T19:10:30.887Z,96.53
2019-02-25T19:13:01.154Z,79.33
2019-02-25T19:15:31.054Z,80.57
2019-02-25T19:18:03.574Z,74.50
2019-02-25T19:20:34.793Z,67.07
2019-02-25T19:23:09.465Z,68.73
2019-02-25T19:25:37.704Z,86.33
2019-02-25T19:28:07.730Z,68.27
2019-02-25T19:30:37.420Z,78.17
2019-02-25T19:33:11.352Z,83.07
2019-02-25T19:35:40.967Z,105.43
2019-02-25T19:38:12.944Z,171.80
2019-02-25T19:40:43.209Z,195.17
2019-02-25T19:43:14.104Z,204.80
2019-02-25T19:45:45.455Z,165.70
2019-02-25T19:48:16.442Z,153.63
2019-02-25T19:50:51.000Z,119.73
2019-02-25T19:53:20.019Z,107.00
2019-02-25T19:55:51.083Z,104.03
2019-02-25T19:58:20.375Z,106.50
2019-02-25T20:00:58.420Z,76.90
2019-02-25T20:03:25.320Z,70.20
2019-02-25T20:05:56.314Z,50.53
2019-02-25T20:08:26.181Z,63.60
2019-02-25T20:10:55.915Z,65.83
2019-02-25T20:13:25.699Z,60.30
2019-02-25T20:15:57.523Z,52.57
2019-02-25T20:18:26.886Z,59.83
2019-02-25T20:20:57.773Z,55.23
2019-02-25T20:23:28.824Z,56.87
2019-02-25T20:25:59.546Z,55.57
2019-02-25T20:28:29.159Z,59.50
2019-02-25T20:31:01.763Z,75.17
2019-02-25T20:33:32.951Z,70.67
2019-02-25T20:36:03.270Z,83.47
2019-02-25T20:38:34.813Z,96.27
2019-02-25T20:41:07.018Z,137.87
2019-02-25T20:43:36.832Z,123.03
2019-02-25T20:46:08.577Z,103.80
2019-02-25T20:48:38.159Z,91.30
2019-02-25T20:51:09.473Z,75.50
2019-02-25T20:53:39.146Z,69.43
2019-02-25T20:56:08.938Z,57.70
2019-02-25T20:58:43.050Z,58.90
2019-02-25T21:01:16.095Z,64.43
2019-02-25T21:03:46.023Z,58.37
2019-02-25T21:06:19.528Z,69.73
2019-02-25T21:08:48.333Z,87.27
2019-02-25T21:11:19.443Z,101.20
2019-02-25T21:13:51.200Z,96.97
2019-02-25T21:16:24.042Z,77.57
2019-02-25T21:18:56.094Z,59.13
2019-02-25T21:21:28.528Z,65.20
2019-02-25T21:24:01.310Z,59.97
2019-02-25T21:26:31.536Z,39.80
2019-02-25T21:29:06.878Z,29.23
2019-02-25T21:31:36.569Z,31.03
2019-02-25T21:34:06.770Z,19.50
2019-02-25T21:36:38.228Z,16.57
2019-02-25T21:39:12.279Z,16.10
2019-02-25T21:41:43.508Z,16.57
2019-02-25T21:44:16.699Z,15.33
2019-02-25T21:46:49.579Z,20.67
2019-02-25T21:49:16.532Z,14.60
2019-02-25T21:51:48.350Z,15.93
2019-02-25T21:54:18.111Z,18.43
2019-02-25T21:56:47.849Z,15.43
2019-02-25T21:59:17.706Z,13.33
2019-02-25T22:01:47.382Z,21.40
2019-02-25T22:04:18.066Z,12.27
2019-02-25T22:06:50.964Z,13.10
2019-02-25T22:09:35.276Z,18.03
2019-02-25T22:11:51.222Z,19.43
2019-02-25T22:14:21.786Z,14.03
2019-02-25T22:16:54.283Z,17.27
2019-02-25T22:19:23.641Z,18.13
2019-02-25T22:21:55.644Z,16.17
2019-02-25T22:24:27.159Z,18.03
2019-02-25T22:26:57.954Z,17.03
2019-02-25T22:29:27.271Z,19.03
2019-02-25T22:31:59.576Z,16.90
2019-02-25T22:34:28.549Z,21.77
2019-02-25T22:36:58.249Z,12.67
2019-02-25T22:39:30.224Z,18.97
2019-02-25T22:41:59.385Z,16.17
2019-02-25T22:44:30.821Z,18.77
2019-02-25T22:47:05.151Z,17.13
2019-02-25T22:49:36.887Z,18.07
2019-02-25T22:52:07.479Z,18.97
2019-02-25T22:54:39.145Z,22.40
2019-02-25T22:57:12.269Z,16.93
2019-02-25T22:59:44.365Z,18.43
2019-02-25T23:02:16.429Z,21.73
2019-02-25T23:04:49.164Z,23.20
2019-02-25T23:07:20.543Z,16.13
2019-02-25T23:09:52.228Z,17.43
2019-02-25T23:12:25.009Z,23.40
2019-02-25T23:14:56.132Z,22.00
2019-02-25T23:17:26.924Z,17.43
2019-02-25T23:19:57.967Z,13.17
2019-02-25T23:22:30.092Z,20.07
2019-02-25T23:25:07.041Z,15.27
2019-02-25T23:27:37.096Z,16.50
2019-02-25T23:30:08.634Z,17.93
2019-02-25T23:32:40.528Z,16.57
2019-02-25T23:35:13.606Z,21.57
2019-02-25T23:37:49.042Z,14.93
2019-02-25T23:40:17.954Z,14.20
2019-02-25T23:42:49.114Z,15.37
2019-02-25T23:45:22.492Z,12.90
2019-02-25T23:47:55.303Z,18.03
2019-02-25T23:50:21.741Z,14.97
2019-02-25T23:52:54.416Z,18.70
2019-02-25T23:55:29.664Z,13.53
2019-02-25T23:57:59.379Z,13.83
